Time;durP1;ratioP1;P1;durP2;ratioP2;P2;SDS_P1;SDS_P2;PMS_P1;PMS_P2;Temp;Humidity;BMP_temperature;BMP_pressure;BME280_temperature;BME280_humidity;BME280_pressure;Samples;Min_cycle;Max_cycle;Signal;HPM_P1;HPM_P2
2024/01/10 00:01:31;;;;;;;7.70;3.83;;;-2.50;84.80;;;;;;5103774;28;20047;-36
2024/01/10 00:03:57;;;;;;;5.70;2.93;;;-2.50;85.00;;;;;;5103443;28;20062;-36
2024/01/10 00:06:23;;;;;;;5.10;2.90;;;-2.50;85.10;;;;;;5103099;28;20393;-34
2024/01/10 00:08:50;;;;;;;4.50;3.40;;;-2.50;85.20;;;;;;5103756;28;20038;-37
2024/01/10 00:11:15;;;;;;;4.60;3.03;;;-2.50;85.40;;;;;;5102661;28;20019;-36
2024/01/10 00:13:41;;;;;;;4.13;3.00;;;-2.50;85.50;;;;;;5103007;28;20473;-35
2024/01/10 00:16:07;;;;;;;4.47;3.20;;;-2.50;85.70;;;;;;5103037;28;20054;-36
2024/01/10 00:18:33;;;;;;;5.27;3.20;;;-2.60;85.80;;;;;;5102821;28;20394;-35
2024/01/10 00:21:01;;;;;;;6.87;3.93;;;-2.60;85.90;;;;;;5102581;28;20024;-36
2024/01/10 00:23:27;;;;;;;6.00;3.17;;;-2.60;86.10;;;;;;5103776;28;20458;-35
2024/01/10 00:25:52;;;;;;;6.00;3.87;;;-2.60;86.20;;;;;;5102406;28;20050;-34
2024/01/10 00:28:18;;;;;;;6.83;3.57;;;-2.60;86.40;;;;;;5102564;28;20469;-34
2024/01/10 00:30:50;;;;;;;5.20;3.60;;;-2.60;86.50;;;;;;5103472;28;20031;-36
2024/01/10 00:33:15;;;;;;;4.97;3.30;;;-2.70;86.60;;;;;;5101952;28;20027;-35
2024/01/10 00:35:41;;;;;;;5.13;3.67;;;-2.70;86.80;;;;;;5102835;28;20081;-34
2024/01/10 00:38:07;;;;;;;5.27;3.57;;;-2.70;86.90;;;;;;5101330;28;20453;-34
2024/01/10 00:40:33;;;;;;;4.87;3.40;;;-2.70;87.10;;;;;;5101916;28;20140;-34
2024/01/10 00:42:58;;;;;;;4.80;3.03;;;-2.70;87.20;;;;;;5102335;28;20020;-36
2024/01/10 00:45:24;;;;;;;6.90;3.73;;;-2.70;87.40;;;;;;5101780;28;20026;-33
2024/01/10 00:47:50;;;;;;;5.03;3.40;;;-2.70;87.50;;;;;;5100329;28;20028;-34
2024/01/10 00:50:16;;;;;;;8.37;4.03;;;-2.70;87.80;;;;;;5100410;28;20940;-36
2024/01/10 00:52:45;;;;;;;5.83;3.10;;;-2.70;87.90;;;;;;5100846;28;20114;-34
2024/01/10 00:55:10;;;;;;;5.43;3.60;;;-2.80;88.00;;;;;;5100402;28;20039;-35
2024/01/10 00:57:38;;;;;;;5.23;3.83;;;-2.80;88.20;;;;;;5101718;28;20680;-35
2024/01/10 01:00:07;;;;;;;4.97;3.40;;;-2.80;88.40;;;;;;5100884;28;20514;-35
2024/01/10 01:02:33;;;;;;;5.50;3.43;;;-2.80;88.50;;;;;;5101501;28;21216;-35
2024/01/10 01:04:58;;;;;;;5.40;3.33;;;-2.80;88.50;;;;;;5101352;28;20034;-35
2024/01/10 01:07:24;;;;;;;3.77;3.10;;;-2.90;89.00;;;;;;5100407;28;20427;-34
2024/01/10 01:09:50;;;;;;;3.70;2.97;;;-2.90;88.90;;;;;;5101900;28;20031;-44
2024/01/10 01:12:16;;;;;;;4.60;3.03;;;-2.90;89.10;;;;;;5102213;28;20031;-34
2024/01/10 01:14:41;;;;;;;4.57;3.20;;;-2.90;89.20;;;;;;5100729;28;20122;-34
2024/01/10 01:17:07;;;;;;;4.67;2.90;;;-3.00;89.20;;;;;;5100792;28;20067;-34
2024/01/10 01:19:33;;;;;;;4.83;3.33;;;-3.00;89.30;;;;;;5101304;28;20540;-34
2024/01/10 01:21:58;;;;;;;4.23;3.13;;;-3.00;89.60;;;;;;5100926;28;20016;-35
2024/01/10 01:24:24;;;;;;;5.83;3.60;;;-3.00;89.90;;;;;;5102004;28;20024;-35
2024/01/10 01:26:50;;;;;;;5.17;3.33;;;-3.00;90.20;;;;;;5101710;28;20031;-35
2024/01/10 01:29:16;;;;;;;4.60;3.60;;;-3.10;90.10;;;;;;5101324;28;20100;-35
2024/01/10 01:31:41;;;;;;;3.97;3.27;;;-3.10;90.20;;;;;;5102280;28;20047;-35
2024/01/10 01:34:07;;;;;;;4.67;2.77;;;-3.10;90.20;;;;;;5101282;28;20543;-35
2024/01/10 01:36:33;;;;;;;4.63;3.30;;;-3.10;90.30;;;;;;5083142;28;20081;-35
2024/01/10 01:38:58;;;;;;;6.03;3.00;;;-3.10;90.40;;;;;;5101685;28;20023;-35
2024/01/10 01:41:24;;;;;;;6.10;3.77;;;-3.20;90.40;;;;;;5102057;28;20012;-35
2024/01/10 01:43:49;;;;;;;4.87;3.63;;;-3.20;90.60;;;;;;5100557;28;20027;-35
2024/01/10 01:46:15;;;;;;;4.70;3.37;;;-3.20;91.00;;;;;;5101686;28;20016;-35
2024/01/10 01:48:45;;;;;;;6.23;3.30;;;-3.20;90.80;;;;;;5102097;28;20035;-35
2024/01/10 01:51:16;;;;;;;5.23;3.60;;;-3.20;90.90;;;;;;5100013;28;20019;-35
2024/01/10 01:53:44;;;;;;;5.77;3.43;;;-3.30;90.80;;;;;;5101410;28;20034;-35
2024/01/10 01:56:10;;;;;;;5.27;3.27;;;-3.30;90.90;;;;;;5100906;28;20084;-34
2024/01/10 01:58:37;;;;;;;5.70;2.90;;;-3.30;90.90;;;;;;5101041;28;20040;-35
2024/01/10 02:01:03;;;;;;;3.00;2.70;;;-3.30;91.00;;;;;;5100414;28;20020;-35
2024/01/10 02:03:31;;;;;;;4.30;2.90;;;-3.30;91.00;;;;;;5101500;28;20417;-35
2024/01/10 02:05:57;;;;;;;4.80;3.40;;;-3.30;91.10;;;;;;5099152;28;20032;-39
2024/01/10 02:08:23;;;;;;;4.53;3.30;;;-3.30;91.10;;;;;;5100901;28;20146;-35
2024/01/10 02:10:49;;;;;;;4.10;2.90;;;-3.30;91.20;;;;;;5100733;28;20821;-35
2024/01/10 02:13:15;;;;;;;6.40;3.47;;;-3.30;91.30;;;;;;5100908;28;20031;-35
2024/01/10 02:15:41;;;;;;;5.67;3.37;;;-3.30;91.30;;;;;;5101154;28;20028;-37
2024/01/10 02:18:07;;;;;;;5.37;3.60;;;-3.40;91.30;;;;;;5099644;28;20023;-35
2024/01/10 02:20:33;;;;;;;5.40;3.37;;;-3.30;91.40;;;;;;5101055;28;20023;-34
2024/01/10 02:22:59;;;;;;;4.87;3.47;;;-3.40;91.40;;;;;;5100066;28;20122;-35
2024/01/10 02:25:24;;;;;;;5.00;3.30;;;-3.40;91.50;;;;;;5100431;28;20843;-34
2024/01/10 02:27:50;;;;;;;5.30;3.30;;;-3.30;91.50;;;;;;5100703;28;20679;-35
2024/01/10 02:30:16;;;;;;;5.97;3.40;;;-3.40;91.50;;;;;;5100073;28;20438;-35
2024/01/10 02:32:41;;;;;;;4.83;3.47;;;-3.40;91.60;;;;;;5099784;28;20065;-35
2024/01/10 02:35:08;;;;;;;4.50;3.47;;;-3.40;91.60;;;;;;5099519;28;20102;-35
2024/01/10 02:37:34;;;;;;;5.97;4.13;;;-3.40;92.00;;;;;;5099750;28;20027;-35
2024/01/10 02:39:59;;;;;;;5.87;3.80;;;-3.40;91.90;;;;;;5099154;28;20023;-34
2024/01/10 02:42:27;;;;;;;6.00;3.97;;;-3.40;92.20;;;;;;5099837;28;20026;-34
2024/01/10 02:44:53;;;;;;;6.83;4.23;;;-3.40;92.10;;;;;;5100482;28;20020;-36
2024/01/10 02:47:18;;;;;;;7.30;3.80;;;-3.40;92.20;;;;;;5099593;28;20082;-35
2024/01/10 02:49:44;;;;;;;4.43;3.53;;;-3.50;92.30;;;;;;5100822;28;20106;-35
2024/01/10 02:52:10;;;;;;;5.40;3.27;;;-3.50;92.20;;;;;;5099708;28;20791;-35
2024/01/10 02:54:36;;;;;;;5.17;3.43;;;-3.50;92.20;;;;;;5081243;28;20137;-36
2024/01/10 02:57:03;;;;;;;5.33;3.47;;;-3.50;92.20;;;;;;5099757;28;20049;-35
2024/01/10 02:59:28;;;;;;;5.60;3.40;;;-3.50;92.70;;;;;;5100688;28;20467;-35
2024/01/10 03:01:54;;;;;;;4.90;3.67;;;-3.50;92.40;;;;;;5099253;28;20016;-35
2024/01/10 03:04:19;;;;;;;4.30;3.40;;;-3.50;92.60;;;;;;5100333;28;20028;-35
2024/01/10 03:06:46;;;;;;;5.03;3.43;;;-3.50;92.40;;;;;;5099914;28;20051;-35
2024/01/10 03:09:12;;;;;;;5.53;3.10;;;-3.60;92.40;;;;;;5097970;28;20738;-36
2024/01/10 03:11:37;;;;;;;5.57;3.40;;;-3.60;92.40;;;;;;5099528;28;20027;-35
2024/01/10 03:14:12;;;;;;;4.83;3.50;;;-3.60;92.40;;;;;;5097908;28;20398;-36
2024/01/10 03:16:38;;;;;;;4.47;3.20;;;-3.60;92.50;;;;;;5099925;28;20023;-35
2024/01/10 03:19:03;;;;;;;5.07;3.10;;;-3.60;92.50;;;;;;5098254;28;20030;-35
2024/01/10 03:21:29;;;;;;;4.37;2.63;;;-3.60;92.50;;;;;;5099059;28;20108;-35
2024/01/10 03:24:00;;;;;;;3.13;2.50;;;-3.60;92.50;;;;;;5098454;28;20034;-36
2024/01/10 03:26:26;;;;;;;5.30;3.03;;;-3.70;92.50;;;;;;5099484;28;20031;-35
2024/01/10 03:28:52;;;;;;;4.27;3.10;;;-3.60;92.60;;;;;;5098494;28;20892;-35
2024/01/10 03:31:19;;;;;;;4.53;2.90;;;-3.70;92.60;;;;;;5098433;28;20020;-35
2024/01/10 03:33:44;;;;;;;3.90;2.50;;;-3.70;92.60;;;;;;5099145;28;20030;-35
2024/01/10 03:36:17;;;;;;;3.73;3.00;;;-3.70;92.70;;;;;;5098002;28;20028;-35
2024/01/10 03:38:43;;;;;;;5.28;3.00;;;-3.70;92.70;;;;;;5080466;28;20119;-35
2024/01/10 03:41:19;;;;;;;4.40;3.10;;;-3.70;92.70;;;;;;5098594;28;20142;-36
2024/01/10 03:43:45;;;;;;;5.80;3.40;;;-3.70;92.80;;;;;;5098600;28;20015;-35
2024/01/10 03:46:12;;;;;;;5.80;2.90;;;-3.80;92.80;;;;;;5098902;28;20405;-36
2024/01/10 03:48:47;;;;;;;4.10;2.93;;;-3.80;92.80;;;;;;5100000;28;20063;-35
2024/01/10 03:51:13;;;;;;;4.83;3.00;;;-3.80;92.90;;;;;;5098579;28;20046;-35
2024/01/10 03:53:38;;;;;;;5.83;3.40;;;-3.80;92.90;;;;;;5099468;28;20745;-36
2024/01/10 03:56:05;;;;;;;4.53;2.93;;;-3.80;92.90;;;;;;5097946;28;20038;-35
2024/01/10 03:58:30;;;;;;;4.73;3.03;;;-3.80;93.00;;;;;;5098846;28;20028;-35
2024/01/10 04:00:56;;;;;;;5.53;3.40;;;-3.90;93.20;;;;;;5099120;28;20039;-35
2024/01/10 04:03:22;;;;;;;4.43;3.23;;;-3.90;93.00;;;;;;5097805;28;20521;-35
2024/01/10 04:05:47;;;;;;;5.00;3.10;;;-3.90;93.20;;;;;;5099357;28;20455;-35
2024/01/10 04:08:13;;;;;;;4.87;3.17;;;-3.90;93.20;;;;;;5099076;28;20146;-35
2024/01/10 04:10:39;;;;;;;5.03;3.43;;;-3.90;93.30;;;;;;5098547;28;20122;-35
2024/01/10 04:13:04;;;;;;;5.63;4.00;;;-3.90;93.50;;;;;;5097665;28;20566;-37
2024/01/10 04:15:30;;;;;;;5.43;3.60;;;-3.90;93.60;;;;;;5098447;28;20114;-34
2024/01/10 04:17:55;;;;;;;6.60;3.63;;;-3.90;93.60;;;;;;5098384;28;20024;-35
2024/01/10 04:20:21;;;;;;;5.57;3.77;;;-4.00;93.60;;;;;;5097776;28;20811;-35
2024/01/10 04:22:47;;;;;;;6.27;4.37;;;-3.90;93.90;;;;;;5097422;28;20736;-35
2024/01/10 04:25:12;;;;;;;5.73;3.67;;;-4.00;93.90;;;;;;5096471;28;20061;-35
2024/01/10 04:27:39;;;;;;;5.70;3.93;;;-4.00;94.00;;;;;;5098036;28;20100;-36
2024/01/10 04:30:05;;;;;;;6.00;3.70;;;-4.00;93.90;;;;;;5097128;28;20024;-35
2024/01/10 04:32:31;;;;;;;7.17;4.10;;;-4.00;94.00;;;;;;5096902;28;20027;-35
2024/01/10 04:34:56;;;;;;;7.23;4.57;;;-4.00;94.00;;;;;;5097559;28;20724;-35
2024/01/10 04:37:22;;;;;;;8.33;4.23;;;-4.00;94.30;;;;;;5099678;28;20109;-41
2024/01/10 04:39:48;;;;;;;6.53;4.57;;;-4.00;94.50;;;;;;5098364;28;20115;-34
2024/01/10 04:42:14;;;;;;;6.27;4.17;;;-4.10;94.40;;;;;;5098666;28;20092;-34
2024/01/10 04:44:39;;;;;;;6.80;3.90;;;-4.10;94.60;;;;;;5102061;28;20031;-35
2024/01/10 04:47:06;;;;;;;5.63;3.90;;;-4.10;94.50;;;;;;5100398;28;20016;-35
2024/01/10 04:49:31;;;;;;;7.03;4.07;;;-4.10;94.50;;;;;;5103064;28;20478;-34
2024/01/10 04:51:57;;;;;;;6.90;3.77;;;-4.10;94.60;;;;;;5102122;28;20096;-35
2024/01/10 04:54:23;;;;;;;6.53;4.03;;;-4.10;94.90;;;;;;5102463;28;20024;-36
2024/01/10 04:56:48;;;;;;;6.13;4.13;;;-4.10;94.80;;;;;;5102822;28;20026;-36
2024/01/10 04:59:14;;;;;;;7.40;4.30;;;-4.10;95.00;;;;;;5101606;28;20073;-36
2024/01/10 05:01:40;;;;;;;8.67;4.50;;;-4.10;95.00;;;;;;5102331;28;20926;-35
2024/01/10 05:04:06;;;;;;;6.37;4.20;;;-4.10;95.30;;;;;;5102430;28;20066;-35
2024/01/10 05:06:34;;;;;;;7.33;4.37;;;-4.10;95.40;;;;;;5099359;28;20126;-35
2024/01/10 05:09:00;;;;;;;5.77;4.17;;;-4.10;95.60;;;;;;5101968;28;20078;-36
2024/01/10 05:11:26;;;;;;;5.57;4.17;;;-4.10;95.70;;;;;;5102414;28;20328;-35
2024/01/10 05:13:52;;;;;;;6.63;4.33;;;-4.10;95.70;;;;;;5101398;28;20131;-36
2024/01/10 05:16:18;;;;;;;6.97;4.80;;;-4.20;95.90;;;;;;5102112;28;20397;-35
2024/01/10 05:18:44;;;;;;;7.17;4.60;;;-4.10;96.10;;;;;;5103030;28;20463;-34
2024/01/10 05:21:10;;;;;;;7.60;4.63;;;-4.10;96.00;;;;;;5101303;28;20130;-35
2024/01/10 05:23:38;;;;;;;7.20;4.13;;;-4.20;95.80;;;;;;5102268;28;20020;-36
2024/01/10 05:26:04;;;;;;;8.20;4.50;;;-4.20;95.90;;;;;;5101322;28;20543;-35
2024/01/10 05:28:30;;;;;;;6.40;4.10;;;-4.20;96.00;;;;;;5101486;28;20789;-35
2024/01/10 05:30:56;;;;;;;6.53;4.43;;;-4.20;96.10;;;;;;5101214;28;20887;-35
2024/01/10 05:33:21;;;;;;;5.67;4.00;;;-4.20;96.10;;;;;;5102535;28;20032;-36
2024/01/10 05:35:47;;;;;;;6.80;4.30;;;-4.20;96.10;;;;;;5101857;28;20022;-36
2024/01/10 05:38:14;;;;;;;6.63;4.43;;;-4.20;96.20;;;;;;5101028;28;20323;-36
2024/01/10 05:40:40;;;;;;;8.27;4.20;;;-4.20;96.20;;;;;;5101758;28;20077;-35
2024/01/10 05:43:07;;;;;;;7.67;5.03;;;-4.20;96.40;;;;;;5100061;28;20027;-35
2024/01/10 05:45:32;;;;;;;7.33;4.60;;;-4.20;96.50;;;;;;5101278;28;20027;-35
2024/01/10 05:47:58;;;;;;;10.27;5.40;;;-4.20;96.40;;;;;;5100457;28;20148;-35
2024/01/10 05:50:24;;;;;;;7.63;4.87;;;-4.20;96.60;;;;;;5099963;28;20126;-35
2024/01/10 05:52:50;;;;;;;6.17;4.60;;;-4.20;96.50;;;;;;5100635;28;20100;-35
2024/01/10 05:55:17;;;;;;;7.63;5.13;;;-4.20;96.50;;;;;;5101067;28;20748;-35
2024/01/10 05:57:42;;;;;;;7.47;4.97;;;-4.20;96.60;;;;;;5099947;28;20067;-35
2024/01/10 06:00:09;;;;;;;9.50;5.63;;;-4.20;96.60;;;;;;5099901;28;20176;-36
2024/01/10 06:02:41;;;;;;;7.57;4.97;;;-4.20;96.70;;;;;;5100459;28;20049;-35
2024/01/10 06:05:12;;;;;;;9.07;5.37;;;-4.20;96.60;;;;;;5097149;28;20027;-35
2024/01/10 06:07:39;;;;;;;6.43;4.30;;;-4.20;96.60;;;;;;5101113;28;20133;-35
2024/01/10 06:10:05;;;;;;;8.30;4.50;;;-4.20;96.60;;;;;;5099988;28;20023;-35
2024/01/10 06:12:31;;;;;;;6.90;4.57;;;-4.20;96.60;;;;;;5101116;28;20033;-35
2024/01/10 06:14:57;;;;;;;7.73;4.43;;;-4.20;96.70;;;;;;5100288;28;20689;-36
2024/01/10 06:17:23;;;;;;;6.90;4.53;;;-4.20;96.60;;;;;;5100288;28;20469;-35
2024/01/10 06:19:49;;;;;;;7.30;4.90;;;-4.20;96.70;;;;;;5100511;28;20031;-35
2024/01/10 06:22:16;;;;;;;8.60;5.37;;;-4.20;96.70;;;;;;5099433;28;20044;-36
2024/01/10 06:24:42;;;;;;;7.93;5.00;;;-4.20;96.80;;;;;;5100730;28;20054;-36
2024/01/10 06:27:08;;;;;;;7.97;5.03;;;-4.20;96.80;;;;;;5100145;28;20055;-36
2024/01/10 06:29:33;;;;;;;8.80;5.33;;;-4.20;96.80;;;;;;5101149;28;20122;-35
2024/01/10 06:32:00;;;;;;;7.63;4.97;;;-4.20;96.70;;;;;;5100421;28;20474;-34
2024/01/10 06:34:27;;;;;;;7.40;5.00;;;-4.20;96.80;;;;;;5100330;28;20023;-34
2024/01/10 06:36:52;;;;;;;9.10;5.63;;;-4.20;96.80;;;;;;5100196;28;20024;-36
2024/01/10 06:39:19;;;;;;;9.80;5.90;;;-4.20;96.90;;;;;;5100550;28;20024;-39
2024/01/10 06:41:47;;;;;;;10.23;5.97;;;-4.20;96.90;;;;;;5100838;28;20113;-36
2024/01/10 06:44:13;;;;;;;7.50;5.47;;;-4.20;96.80;;;;;;5100212;28;20023;-37
2024/01/10 06:46:38;;;;;;;9.53;5.17;;;-4.20;96.90;;;;;;5100467;28;20390;-37
2024/01/10 06:49:04;;;;;;;8.43;5.10;;;-4.20;96.80;;;;;;5099136;28;20158;-34
2024/01/10 06:51:29;;;;;;;8.47;5.37;;;-4.20;96.90;;;;;;5099055;28;20130;-34
2024/01/10 06:54:02;;;;;;;10.37;5.67;;;-4.30;96.90;;;;;;5080258;28;20038;-35
2024/01/10 06:56:28;;;;;;;8.15;5.05;;;-4.30;96.90;;;;;;5097958;28;20035;-35
2024/01/10 06:58:54;;;;;;;8.63;5.10;;;-4.30;96.90;;;;;;5099837;28;20477;-35
2024/01/10 07:01:21;;;;;;;9.70;5.67;;;-4.20;97.00;;;;;;5097642;28;20360;-35
2024/01/10 07:03:47;;;;;;;11.47;6.20;;;-4.30;97.00;;;;;;5099383;28;20741;-35
2024/01/10 07:06:14;;;;;;;8.23;5.73;;;-4.30;97.00;;;;;;5096547;28;20215;-37
2024/01/10 07:08:42;;;;;;;8.27;4.97;;;-4.30;97.00;;;;;;5099333;28;20039;-36
2024/01/10 07:11:08;;;;;;;11.00;6.27;;;-4.30;96.90;;;;;;5098267;28;20035;-37
2024/01/10 07:13:34;;;;;;;8.13;4.90;;;-4.30;97.00;;;;;;5098396;28;20845;-37
2024/01/10 07:16:01;;;;;;;10.07;5.70;;;-4.30;97.00;;;;;;5098682;28;20032;-37
2024/01/10 07:18:28;;;;;;;10.30;6.30;;;-4.30;97.00;;;;;;5098206;28;20410;-36
2024/01/10 07:20:57;;;;;;;9.67;6.63;;;-4.30;97.00;;;;;;5097974;28;20127;-38
2024/01/10 07:23:22;;;;;;;9.87;6.00;;;-4.30;97.00;;;;;;5099349;28;20088;-36
2024/01/10 07:25:51;;;;;;;10.53;6.17;;;-4.30;97.00;;;;;;5098686;28;20569;-35
2024/01/10 07:28:17;;;;;;;8.47;5.90;;;-4.30;97.00;;;;;;5098157;28;20046;-34
2024/01/10 07:30:44;;;;;;;7.77;4.90;;;-4.30;97.00;;;;;;5098775;28;20039;-35
2024/01/10 07:33:10;;;;;;;10.07;5.97;;;-4.30;97.00;;;;;;5098155;28;20342;-35
2024/01/10 07:35:37;;;;;;;8.87;5.83;;;-4.30;97.10;;;;;;5097924;28;20034;-35
2024/01/10 07:38:10;;;;;;;9.77;5.73;;;-4.40;97.10;;;;;;5097753;28;20143;-35
2024/01/10 07:40:36;;;;;;;8.90;5.90;;;-4.40;97.10;;;;;;5099060;28;20030;-35
2024/01/10 07:43:02;;;;;;;12.43;6.77;;;-4.40;97.10;;;;;;5099130;28;20023;-35
2024/01/10 07:45:28;;;;;;;10.67;6.67;;;-4.40;97.20;;;;;;5099521;28;20030;-36
2024/01/10 07:47:54;;;;;;;13.60;7.30;;;-4.40;97.10;;;;;;5080230;28;20040;-36
2024/01/10 07:50:20;;;;;;;12.40;6.80;;;-4.40;97.10;;;;;;5098929;28;20349;-36
2024/01/10 07:52:46;;;;;;;10.47;6.80;;;-4.40;97.20;;;;;;5098703;28;20043;-36
2024/01/10 07:55:12;;;;;;;10.90;5.83;;;-4.40;97.20;;;;;;5097526;28;20027;-34
2024/01/10 07:57:38;;;;;;;10.03;6.33;;;-4.40;97.20;;;;;;5079237;28;20119;-34
2024/01/10 08:00:05;;;;;;;10.57;5.53;;;-4.40;97.20;;;;;;5097855;28;20455;-36
2024/01/10 08:02:34;;;;;;;10.50;5.60;;;-4.40;97.20;;;;;;5096754;28;20512;-37
2024/01/10 08:05:00;;;;;;;9.57;5.60;;;-4.30;97.20;;;;;;5098095;28;20042;-35
2024/01/10 08:07:26;;;;;;;10.33;6.20;;;-4.40;97.20;;;;;;5097825;28;20547;-36
2024/01/10 08:09:52;;;;;;;12.63;6.30;;;-4.30;97.20;;;;;;5098507;28;20028;-36
2024/01/10 08:12:18;;;;;;;10.60;7.17;;;-4.30;97.20;;;;;;5098761;28;20026;-36
2024/01/10 08:14:45;;;;;;;10.90;7.03;;;-4.30;97.00;;;;;;5099715;28;20032;-36
2024/01/10 08:17:11;;;;;;;10.70;7.00;;;-4.20;96.90;;;;;;5101147;28;20020;-34
2024/01/10 08:19:37;;;;;;;15.43;8.90;;;-4.20;96.70;;;;;;5102788;28;20085;-35
2024/01/10 08:22:04;;;;;;;14.17;8.13;;;-4.10;96.60;;;;;;5103100;28;20074;-36
2024/01/10 08:24:30;;;;;;;14.40;7.80;;;-4.00;96.40;;;;;;5102454;28;20515;-41
2024/01/10 08:26:55;;;;;;;16.60;8.80;;;-4.00;96.40;;;;;;5102139;28;20035;-35
2024/01/10 08:29:21;;;;;;;13.77;7.97;;;-4.00;96.20;;;;;;5102321;28;20415;-35
2024/01/10 08:31:48;;;;;;;15.87;8.17;;;-3.90;96.20;;;;;;5102482;28;20731;-35
2024/01/10 08:34:14;;;;;;;14.53;8.70;;;-3.90;96.00;;;;;;5101984;28;20031;-35
2024/01/10 08:36:39;;;;;;;14.53;9.40;;;-3.90;95.90;;;;;;5102971;28;20028;-35
2024/01/10 08:39:06;;;;;;;17.53;9.03;;;-3.80;95.60;;;;;;5100471;28;20634;-35
2024/01/10 08:41:32;;;;;;;17.57;9.03;;;-3.80;95.60;;;;;;5102435;28;20039;-35
2024/01/10 08:43:57;;;;;;;13.30;8.63;;;-3.80;95.40;;;;;;5101601;28;20020;-36
2024/01/10 08:46:24;;;;;;;15.87;8.93;;;-3.70;95.40;;;;;;5101898;28;20093;-35
2024/01/10 08:48:50;;;;;;;14.30;8.37;;;-3.70;95.30;;;;;;5101837;28;20063;-35
2024/01/10 08:51:17;;;;;;;13.87;8.60;;;-3.60;95.20;;;;;;5102030;28;20124;-35
2024/01/10 08:53:43;;;;;;;14.13;8.13;;;-3.60;95.10;;;;;;5102018;28;20036;-36
2024/01/10 08:56:10;;;;;;;16.67;8.47;;;-3.50;95.10;;;;;;5101130;28;20019;-35
2024/01/10 08:58:36;;;;;;;14.17;8.00;;;-3.50;95.10;;;;;;5100970;28;20760;-36
2024/01/10 09:01:04;;;;;;;12.10;7.40;;;-3.50;95.20;;;;;;5101613;28;20027;-35
2024/01/10 09:03:30;;;;;;;15.20;9.07;;;-3.50;95.20;;;;;;5101893;28;20040;-36
2024/01/10 09:05:55;;;;;;;15.33;8.00;;;-3.40;95.30;;;;;;5096851;28;20039;-35
2024/01/10 09:08:21;;;;;;;13.23;7.73;;;-3.40;95.00;;;;;;5101933;28;20050;-36
2024/01/10 09:10:49;;;;;;;16.07;9.13;;;-3.30;95.00;;;;;;5101412;28;20082;-36
2024/01/10 09:13:15;;;;;;;16.37;8.73;;;-3.30;94.80;;;;;;5101095;28;20035;-36
2024/01/10 09:15:41;;;;;;;15.23;8.60;;;-3.30;94.60;;;;;;5101562;28;20055;-36
2024/01/10 09:18:06;;;;;;;15.60;8.97;;;-3.20;94.50;;;;;;5100278;28;20573;-38
2024/01/10 09:20:32;;;;;;;14.40;8.40;;;-3.10;94.30;;;;;;5099166;28;20024;-36
2024/01/10 09:23:00;;;;;;;14.30;9.03;;;-3.10;94.10;;;;;;5101320;28;20466;-35
2024/01/10 09:25:25;;;;;;;13.63;7.70;;;-3.10;94.20;;;;;;5100933;28;20117;-36
2024/01/10 09:27:51;;;;;;;15.97;9.30;;;-3.00;94.30;;;;;;5099735;28;20062;-36
2024/01/10 09:30:18;;;;;;;17.00;9.17;;;-3.00;93.90;;;;;;5101035;28;20080;-36
2024/01/10 09:32:45;;;;;;;15.03;8.80;;;-2.90;93.70;;;;;;5101499;28;20024;-36
2024/01/10 09:35:10;;;;;;;14.13;8.07;;;-2.90;93.80;;;;;;5100004;28;20393;-36
2024/01/10 09:37:36;;;;;;;17.93;9.83;;;-2.80;93.70;;;;;;5101013;28;20024;-36
2024/01/10 09:40:02;;;;;;;12.50;8.17;;;-2.80;93.30;;;;;;5100591;28;20550;-36
2024/01/10 09:42:31;;;;;;;13.47;7.97;;;-2.70;93.30;;;;;;5098859;28;20036;-35
2024/01/10 09:44:57;;;;;;;16.17;9.43;;;-2.70;93.30;;;;;;5100948;28;20036;-36
2024/01/10 09:47:23;;;;;;;17.27;10.00;;;-2.60;93.20;;;;;;5099808;28;20040;-35
2024/01/10 09:49:49;;;;;;;15.00;9.40;;;-2.60;92.70;;;;;;5099507;28;20027;-35
2024/01/10 09:52:25;;;;;;;15.83;9.53;;;-2.50;92.60;;;;;;5098353;28;20020;-35
2024/01/10 09:54:56;;;;;;;17.77;8.50;;;-2.50;92.60;;;;;;5100454;28;20031;-35
2024/01/10 09:57:26;;;;;;;14.07;8.50;;;-2.40;92.60;;;;;;5100738;28;20027;-36
2024/01/10 09:59:52;;;;;;;17.30;10.47;;;-2.40;92.50;;;;;;5100336;28;20037;-37
2024/01/10 10:02:22;;;;;;;15.53;8.53;;;-2.40;92.20;;;;;;5100597;28;20031;-34
2024/01/10 10:05:08;;;;;;;15.70;9.33;;;-2.30;91.90;;;;;;5100600;28;20031;-36
2024/01/10 10:07:51;;;;;;;13.50;8.37;;;-2.20;91.60;;;;;;5059925;28;20044;-35
2024/01/10 10:10:18;;;;;;;;;;;-2.20;91.70;;;;;;5060028;28;20429;-40
2024/01/10 10:12:48;;;;;;;15.70;8.10;;;-2.10;91.50;;;;;;5060675;28;19908;-36
2024/01/10 10:15:16;;;;;;;15.67;9.10;;;-2.10;91.50;;;;;;5060397;28;20073;-35
2024/01/10 10:17:46;;;;;;;16.83;9.67;;;-2.10;91.20;;;;;;5059477;28;20028;-34
2024/01/10 10:20:27;;;;;;;15.27;9.27;;;-2.00;90.80;;;;;;5047910;28;20517;-36
2024/01/10 10:23:12;;;;;;;16.03;9.03;;;-2.00;90.80;;;;;;5058577;28;20636;-36
2024/01/10 10:25:43;;;;;;;16.23;9.60;;;-1.90;90.80;;;;;;5039540;28;20020;-37
2024/01/10 10:28:08;;;;;;;17.37;10.10;;;-1.80;90.60;;;;;;5055620;28;20043;-35
2024/01/10 10:30:35;;;;;;;17.43;9.63;;;-1.80;90.40;;;;;;5058211;28;20446;-35
2024/01/10 10:33:08;;;;;;;17.57;9.67;;;-1.70;90.20;;;;;;5058469;28;20037;-36
2024/01/10 10:35:34;;;;;;;17.87;9.97;;;-1.70;90.20;;;;;;5060081;28;20031;-36
2024/01/10 10:38:00;;;;;;;17.00;9.07;;;-1.70;90.10;;;;;;5058986;28;20028;-36
2024/01/10 10:40:26;;;;;;;18.13;10.67;;;-1.60;90.30;;;;;;5060353;28;20055;-36
2024/01/10 10:42:56;;;;;;;14.77;8.53;;;-1.60;89.80;;;;;;5059611;28;20138;-35
2024/01/10 10:45:29;;;;;;;22.73;12.70;;;-1.50;90.10;;;;;;5059681;28;20024;-36
2024/01/10 10:47:59;;;;;;;21.27;10.83;;;-1.50;89.80;;;;;;5059162;28;20475;-36
2024/01/10 10:50:28;;;;;;;19.63;11.20;;;-1.40;89.70;;;;;;5059173;28;20020;-36
2024/01/10 10:52:56;;;;;;;21.30;13.00;;;-1.30;89.30;;;;;;5057783;28;20020;-45
2024/01/10 10:55:23;;;;;;;19.60;11.13;;;-1.30;89.00;;;;;;5059724;28;20020;-35
2024/01/10 10:57:49;;;;;;;24.13;11.23;;;-1.30;88.50;;;;;;5059752;28;20055;-36
2024/01/10 11:00:21;;;;;;;19.50;10.23;;;-1.30;87.80;;;;;;5058762;28;20086;-41
2024/01/10 11:02:47;;;;;;;17.60;9.70;;;-1.20;87.40;;;;;;5059016;28;20020;-36
2024/01/10 11:05:13;;;;;;;15.83;8.73;;;-1.20;88.00;;;;;;5061177;28;20031;-36
2024/01/10 11:07:44;;;;;;;13.57;8.33;;;-1.10;88.40;;;;;;5099270;28;20397;-36
2024/01/10 11:10:17;;;;;;;13.53;7.90;;;-1.10;88.50;;;;;;5098801;28;20096;-36
2024/01/10 11:13:10;;;;;;;16.53;9.50;;;-1.00;88.90;;;;;;5099217;28;20497;-38
2024/01/10 11:15:51;;;;;;;17.70;9.48;;;-1.00;88.00;;;;;;5099235;28;20099;-37
2024/01/10 11:18:39;;;;;;;17.30;9.53;;;-0.90;87.40;;;;;;5099221;28;20042;-36
2024/01/10 11:21:27;;;;;;;16.27;9.40;;;-0.90;86.70;;;;;;5089363;28;20528;-36
2024/01/10 11:24:00;;;;;;;17.47;9.80;;;-0.90;86.60;;;;;;5100414;28;20130;-36
2024/01/10 11:26:26;;;;;;;17.00;9.80;;;-0.80;85.70;;;;;;5100005;28;20530;-38
2024/01/10 11:28:52;;;;;;;14.33;8.50;;;-0.80;85.80;;;;;;5099521;28;20032;-36
2024/01/10 11:31:29;;;;;;;12.73;8.27;;;-0.70;85.90;;;;;;5099745;28;20026;-36
2024/01/10 11:33:56;;;;;;;17.57;8.93;;;-0.70;86.30;;;;;;5098569;28;20078;-35
2024/01/10 11:36:25;;;;;;;15.77;9.70;;;-0.60;85.00;;;;;;5099003;28;20466;-35
2024/01/10 11:38:54;;;;;;;16.13;10.03;;;-0.60;84.60;;;;;;5099067;28;20545;-35
2024/01/10 11:41:24;;;;;;;17.20;9.53;;;-0.60;84.80;;;;;;5098693;28;20112;-35
2024/01/10 11:44:08;;;;;;;15.80;8.43;;;-0.50;85.10;;;;;;5099406;28;20027;-37
2024/01/10 11:46:54;;;;;;;16.67;9.13;;;-0.40;85.30;;;;;;5096714;28;20078;-35
2024/01/10 11:49:21;;;;;;;15.37;8.50;;;-0.40;84.90;;;;;;5098114;28;20030;-36
2024/01/10 11:51:58;;;;;;;15.68;9.43;;;-0.40;84.30;;;;;;5101250;28;20028;-35
2024/01/10 11:54:41;;;;;;;13.35;8.35;;;-0.30;83.60;;;;;;5102776;28;20024;-36
2024/01/10 11:57:26;;;;;;;16.45;9.07;;;-0.30;84.00;;;;;;5091842;28;20035;-36
2024/01/10 11:59:54;;;;;;;12.65;7.63;;;-0.20;82.60;;;;;;5102880;28;20028;-35
2024/01/10 12:02:21;;;;;;;14.37;7.70;;;-0.20;83.50;;;;;;5102984;28;20100;-35
2024/01/10 12:04:48;;;;;;;14.60;8.68;;;-0.10;83.70;;;;;;5102982;28;20031;-36
2024/01/10 12:07:15;;;;;;;14.93;8.95;;;-0.10;83.20;;;;;;5102470;28;20594;-36
2024/01/10 12:09:41;;;;;;;17.23;9.43;;;0.00;82.00;;;;;;5102634;28;20034;-35
2024/01/10 12:12:08;;;;;;;13.90;8.77;;;0.00;81.50;;;;;;5102048;28;20027;-35
2024/01/10 12:14:34;;;;;;;17.03;9.17;;;0.00;81.80;;;;;;5104269;28;20019;-35
2024/01/10 12:17:00;;;;;;;17.63;9.95;;;0.00;81.80;;;;;;5101387;28;20474;-35
2024/01/10 12:19:27;;;;;;;16.90;9.65;;;0.00;80.90;;;;;;5102348;28;20031;-35
2024/01/10 12:21:52;;;;;;;14.13;8.70;;;0.10;80.80;;;;;;5102067;28;20024;-36
2024/01/10 12:24:19;;;;;;;14.43;9.02;;;0.10;81.00;;;;;;5101089;28;20039;-35
2024/01/10 12:26:46;;;;;;;18.33;9.70;;;0.10;82.00;;;;;;5098629;28;20285;-36
2024/01/10 12:29:12;;;;;;;13.05;8.10;;;0.20;81.00;;;;;;5101005;28;20039;-35
2024/01/10 12:31:38;;;;;;;13.18;7.80;;;0.20;81.10;;;;;;5100210;28;20032;-35
2024/01/10 12:34:07;;;;;;;12.18;8.05;;;0.20;81.60;;;;;;5102431;28;20465;-36
2024/01/10 12:36:33;;;;;;;16.88;8.13;;;0.30;81.60;;;;;;5102847;28;20019;-36
2024/01/10 12:38:59;;;;;;;10.30;7.30;;;0.30;81.80;;;;;;5101236;28;20066;-36
2024/01/10 12:41:26;;;;;;;14.80;8.57;;;0.40;81.80;;;;;;5102564;28;20051;-35
2024/01/10 12:43:56;;;;;;;12.95;7.97;;;0.40;81.00;;;;;;5101516;28;20024;-36